Latest Coastal Weather Observations for Yarram Airport

IDV60701

Issued at 8:35 am EDT Saturday 1 November 2014 (issued every 10 minutes, with the page automatically refreshed every 10 minutes)

About coastal observations | Map of coastal stations | Coastal observations for VIC | Marine services | Other Formats
Station Details ID: 085151 Name: YARRAM AIRPORT Lat: -38.56 Lon: 146.75 Height: 17.9 m
Data from the previous 72 hours. | See also: Recent months at Yarram Airport
Date/Time
EDT
Temp

°C
Wind Pressure Rain
since 9am
mm
Weather Cloud Vis
km
Sea
Height
m
Swell
Dir
 
Speed
knots
Gust
knots
hPa Trend Height
m
Period
s
Dir
01/08:30am 13.2 WSW 10 14 1000.4 - - - - - - - - -
01/08:00am 13.6 W 9 12 1000.0 - - - - - - - - -
01/07:30am 13.8 WSW 12 17 999.7 - - - - - - - - -
01/07:00am 14.8 WSW 11 16 998.7 - - - - - - - - -
01/06:30am 15.1 W 16 20 997.9 - - - - - - - - -
01/06:00am 14.4 W 11 14 997.5 - - - - - - - - -
01/05:30am 14.6 W 10 14 997.4 - - - - - - - - -
01/05:00am 14.8 W 15 18 997.8 - - - - - - - - -
01/04:30am 14.9 W 11 14 996.6 - - - - - - - - -
01/04:00am 15.0 W 21 29 997.5 - - - - - - - - -
01/03:30am 15.7 W 24 31 997.8 - - - - - - - - -
01/03:09am 16.2 W 21 31 997.6 - - - - - - - - -
01/03:00am 16.6 W 21 28 997.6 - - - - - - - - -
01/02:30am 17.7 WSW 17 23 997.3 - - - - - - - - -
01/02:00am 18.3 W 14 19 996.9 - 0.0 - - - - - - -
01/01:30am 18.8 W 18 25 996.7 - 0.0 - - - - - - -
01/01:18am 19.8 WSW 16 26 996.3 - 0.0 - - - - - - -
01/01:00am 22.1 SW 18 23 996.3 - 0.0 - - - - - - -
01/12:53am 24.4 W 15 25 996.0 - 0.0 - - - - - - -
01/12:30am 24.6 N 13 16 994.8 - 0.0 - - - - - - -
01/12:00am 23.8 N 13 16 995.2 - 0.0 - - - - - - -
 
Date/Time
EDT
Temp

°C
Wind Pressure Rain
since 9am
mm
Weather Cloud Vis
km
Sea
Height
m
Swell
Dir
 
Speed
knots
Gust
knots
hPa Trend Height
m
Period
s
Dir
31/11:30pm 22.5 N 13 16 995.9 - 0.0 - - - - - - -
31/11:26pm 22.4 N 13 16 995.9 - 0.0 - - - - - - -
31/11:00pm 17.4 NNE 8 9 996.6 - 0.0 - - - - - - -
31/10:30pm 18.3 NNE 9 11 997.1 - 0.0 - - - - - - -
31/10:00pm 18.3 NE 8 10 997.9 - 0.0 - - - - - - -
31/09:30pm 18.9 NE 8 11 998.7 - 0.0 - - - - - - -
31/09:00pm 19.9 NE 9 11 999.2 - 0.0 - - - - - - -
31/08:30pm 20.6 NE 10 13 999.4 - 0.0 - - - - - - -
31/08:00pm 21.1 NE 9 12 999.8 - 0.0 - - - - - - -
31/07:30pm 20.8 NE 8 10 1000.2 - 0.0 - - - - - - -
31/07:00pm 20.6 E 7 9 1000.4 - 0.0 - - - - - - -
31/06:30pm 22.9 ENE 8 11 1000.7 - 0.0 - - - - - - -
31/06:00pm 23.0 E 9 12 1001.0 - 0.0 - - - - - - -
31/05:30pm 22.9 E 9 15 1001.1 - 0.0 - - - - - - -
31/05:00pm 24.7 E 10 14 1001.3 - 0.0 - - - - - - -
31/04:30pm 25.8 E 10 16 1001.6 - 0.0 - - - - - - -
31/04:00pm 26.0 E 10 14 1001.9 - 0.0 - - - - - - -
31/03:30pm 26.8 ESE 8 11 1002.3 - 0.0 - - - - - - -
31/03:00pm 25.0 E 10 13 1003.0 - 0.0 - - - - - - -
31/02:30pm 24.3 E 10 14 1003.8 - 0.0 - - - - - - -
31/02:00pm 24.5 E 11 14 1004.6 - 0.0 - - - - - - -
31/01:30pm 24.2 ENE 8 11 1005.2 - 0.0 - - - - - - -
31/01:00pm 23.7 E 8 11 1005.8 - 0.0 - - - - - - -
31/12:30pm 24.4 E 4 6 1006.4 - 0.0 - - - - - - -
31/12:00pm 23.3 NE 5 9 1007.0 - 0.0 - - - - - - -
31/11:30am 21.8 NE 7 10 1007.7 - 0.0 - - - - - - -
31/11:00am 21.0 NE 8 11 1007.9 - 0.0 - - - - - - -
31/10:30am 20.5 NE 10 12 1008.3 - 0.0 - - - - - - -
31/10:00am 19.6 NNE 10 13 1008.9 - 0.0 - - - - - - -
31/09:30am 17.2 NE 9 12 1009.2 - 0.0 - - - - - - -
31/09:00am 16.7 NE 8 11 1009.9 - 0.0 - - - - - - -
31/08:30am 15.2 NE 9 12 1010.4 - 0.0 - - - - - - -
31/08:00am 14.2 NE 7 9 1010.6 - 0.0 - - - - - - -
31/07:30am 11.4 NE 6 8 1010.8 - 0.0 - - - - - - -
31/07:00am 9.0 NE 5 7 1010.9 - 0.0 - - - - - - -
31/06:30am 7.2 NE 5 6 1010.9 - 0.0 - - - - - - -
31/06:00am 7.1 NE 5 6 1011.0 - 0.0 - - - - - - -
31/05:30am 7.9 NNE 4 5 1011.2 - 0.0 - - - - - - -
31/05:00am 10.1 CALM 0 0 1011.2 - 0.0 - - - - - - -
31/04:30am 10.6 CALM 0 0 1011.3 - 0.0 - - - - - - -
31/04:00am 10.7 CALM 0 0 1011.5 - 0.0 - - - - - - -
31/03:30am 11.2 CALM 0 0 1011.8 - 0.0 - - - - - - -
31/03:00am 11.5 CALM 0 0 1011.9 - 0.0 - - - - - - -
31/02:30am 11.4 WNW 3 4 1012.5 - 0.0 - - - - - - -
31/02:00am 11.5 WNW 3 5 1012.8 - 0.0 - - - - - - -
31/01:30am 12.1 W 4 5 1013.4 - 0.0 - - - - - - -
31/01:00am 12.2 WNW 3 4 1013.5 - 0.0 - - - - - - -
31/12:30am 12.1 WNW 4 5 1013.9 - 0.0 - - - - - - -
31/12:00am 12.0 WNW 6 7 1014.0 - 0.0 - - - - - - -
 
Date/Time
EDT
Temp

°C
Wind Pressure Rain
since 9am
mm
Weather Cloud Vis
km
Sea
Height
m
Swell
Dir
 
Speed
knots
Gust
knots
hPa Trend Height
m
Period
s
Dir
30/11:30pm 10.4 NW 6 7 1014.1 - 0.0 - - - - - - -
30/11:00pm 9.9 NW 6 7 1014.0 - 0.0 - - - - - - -
30/10:30pm 9.5 NNW 6 8 1014.1 - 0.0 - - - - - - -
30/10:00pm 10.2 WSW 7 9 1014.0 - 0.0 - - - - - - -
30/09:30pm 11.3 WSW 8 9 1014.2 - 0.0 - - - - - - -
30/09:00pm 10.8 SW 9 10 1014.0 - 0.0 - - - - - - -
30/08:30pm 11.3 SSW 8 10 1013.8 - 0.0 - - - - - - -
30/08:00pm 12.8 SSW 9 14 1013.8 - 0.0 - - - - - - -
30/07:30pm 13.9 SSW 9 13 1013.5 - 0.0 - - - - - - -
30/07:00pm 15.6 SW 8 12 1013.1 - 0.0 - - - - - - -
30/06:30pm 16.1 SW 15 18 1012.8 - 0.0 - - - - - - -
30/06:00pm 16.8 SW 17 23 1012.5 - 0.0 - - - - - - -
30/05:30pm 17.1 WSW 20 26 1012.3 - 0.0 - - - - - - -
30/05:00pm 17.6 WSW 20 26 1012.2 - 0.0 - - - - - - -
30/04:30pm 17.9 SW 22 27 1012.1 - 0.0 - - - - - - -
30/04:00pm 18.9 WSW 19 24 1011.7 - 0.0 - - - - - - -
30/03:30pm 19.5 SW 17 23 1011.8 - 0.0 - - - - - - -
30/03:00pm 19.1 SW 19 25 1011.9 - 0.0 - - - - - - -
30/02:30pm 20.5 WSW 15 21 1012.1 - 0.0 - - - - - - -
30/02:00pm 20.0 WSW 15 23 1012.3 - 0.0 - - - - - - -
30/01:44pm 20.1 WSW 15 25 1012.4 - 0.0 - - - - - - -
30/01:30pm 20.1 WSW 17 22 1012.6 - 0.0 - - - - - - -
30/01:00pm 19.1 W 14 21 1013.1 - 0.0 - - - - - - -
30/12:30pm 19.1 W 15 22 1013.2 - 0.0 - - - - - - -
30/12:00pm 19.0 W 14 19 1013.2 - 0.0 - - - - - - -
30/11:30am 18.5 W 13 18 1013.5 - 0.0 - - - - - - -
30/11:00am 17.9 W 15 20 1014.1 - 0.0 - - - - - - -
30/10:30am 17.7 WSW 14 18 1014.2 - 0.0 - - - - - - -
30/10:00am 17.3 WNW 15 21 1014.2 - 0.0 - - - - - - -
30/09:30am 16.9 W 15 19 1014.1 - 0.0 - - - - - - -
30/09:00am 16.4 WNW 15 20 1014.1 - 0.0 - - - - - - -
30/08:30am 16.0 WNW 13 18 1014.3 - 0.0 - - - - - - -
30/08:00am 15.0 WNW 11 15 1014.1 - 0.0 - - - - - - -
30/07:30am 12.6 NNE 4 5 1014.1 - 0.0 - - - - - - -
30/07:00am 11.6 NNE 3 5 1013.7 - 0.0 - - - - - - -
30/06:30am 11.3 NNE 2 5 1013.4 - 0.0 - - - - - - -
30/06:00am 11.7 CALM 0 1 1013.5 - 0.0 - - - - - - -
30/05:30am 12.5 CALM 0 1 1013.6 - 0.0 - - - - - - -
30/05:00am 13.0 W 3 5 1013.6 - 0.0 - - - - - - -
30/04:30am 13.2 WNW 5 6 1013.6 - 0.0 - - - - - - -
30/04:00am 13.4 NW 6 8 1013.9 - 0.0 - - - - - - -
30/03:30am 13.1 NW 7 9 1013.9 - 0.0 - - - - - - -
30/03:00am 12.8 NW 5 7 1014.1 - 0.0 - - - - - - -
30/02:30am 13.0 WNW 7 8 1014.3 - 0.0 - - - - - - -
30/02:00am 13.3 WNW 6 8 1014.8 - 0.0 - - - - - - -
30/01:30am 12.9 WNW 5 6 1014.9 - 0.0 - - - - - - -
30/01:00am 12.9 NW 5 6 1015.2 - 0.0 - - - - - - -
30/12:30am 13.2 N 5 6 1015.4 - 0.0 - - - - - - -
30/12:00am 13.2 N 5 7 1015.6 - 0.0 - - - - - - -
 
Date/Time
EDT
Temp

°C
Wind Pressure Rain
since 9am
mm
Weather Cloud Vis
km
Sea
Height
m
Swell
Dir
 
Speed
knots
Gust
knots
hPa Trend Height
m
Period
s
Dir
29/11:30pm 13.3 NNW 6 9 1015.8 - 0.0 - - - - - - -
29/11:00pm 12.5 NW 8 9 1016.0 - 0.0 - - - - - - -
29/10:30pm 12.2 NNW 7 9 1016.1 - 0.0 - - - - - - -
29/10:00pm 10.4 NNW 6 8 1016.1 - 0.0 - - - - - - -
29/09:30pm 10.6 WNW 7 9 1016.0 - 0.0 - - - - - - -
29/09:00pm 11.7 WSW 8 11 1015.7 - 0.0 - - - - - - -
29/08:30pm 12.4 SW 11 13 1015.4 - 0.0 - - - - - - -
29/08:00pm 13.0 SW 11 15 1015.3 - 0.0 - - - - - - -
29/07:30pm 14.1 SW 9 11 1015.1 - 0.0 - - - - - - -
29/07:00pm 15.4 SW 12 14 1014.9 - 0.0 - - - - - - -
29/06:30pm 16.2 SW 12 16 1014.6 - 0.0 - - - - - - -
29/06:00pm 17.1 SW 13 16 1014.4 - 0.0 - - - - - - -
29/05:30pm 17.5 SW 11 16 1014.3 - 0.0 - - - - - - -
29/05:00pm 17.8 SW 13 17 1014.4 - 0.0 - - - - - - -
29/04:30pm 17.8 WSW 13 18 1014.5 - 0.0 - - - - - - -
29/04:00pm 18.1 WSW 14 18 1014.6 - 0.0 - - - - - - -
29/03:30pm 18.8 WSW 15 19 1014.7 - 0.0 - - - - - - -
29/03:00pm 18.0 W 12 17 1014.9 - 0.0 - - - - - - -
29/02:30pm 18.1 W 15 21 1015.2 - 0.0 - - - - - - -
29/02:00pm 17.9 W 15 22 1015.5 - 0.0 - - - - - - -
29/01:30pm 17.1 W 15 22 1015.8 - 0.0 - - - - - - -
29/01:00pm 16.3 W 16 21 1016.1 - 0.0 - - - - - - -
29/12:30pm 16.1 W 15 22 1016.2 - 0.0 - - - - - - -
29/12:00pm 16.2 WNW 12 18 1016.6 - 0.0 - - - - - - -
29/11:30am 15.8 W 12 17 1016.9 - 0.0 - - - - - - -
29/11:00am 15.4 W 13 18 1017.1 - 0.0 - - - - - - -
29/10:30am 14.9 W 11 16 1017.2 - 0.0 - - - - - - -
29/10:00am 14.8 WNW 12 17 1017.4 - 0.0 - - - - - - -
29/09:30am 14.1 W 11 16 1017.4 - 0.0 - - - - - - -
29/09:00am 14.2 W 13 17 1017.3 - 0.2 - - - - - - -

Other Formats:

Comma delimited format used in spreadsheet applications
http://www.bom.gov.au/fwo/IDV60701/IDV60701.95890.axf

JavaScript Object Notation format (JSON) in row-major order
http://www.bom.gov.au/fwo/IDV60701/IDV60701.95890.json